sensor_id;sensor_type;location;lat;lon;timestamp;P1;durP1;ratioP1;P2;durP2;ratioP2
13421;SDS011;6782;55.904;13.396;2023-04-03T00:00:11;2.53;;;1.50;;
13421;SDS011;6782;55.904;13.396;2023-04-03T00:02:59;2.93;;;1.60;;
13421;SDS011;6782;55.904;13.396;2023-04-03T00:05:46;2.37;;;1.30;;
13421;SDS011;6782;55.904;13.396;2023-04-03T00:08:35;2.77;;;1.60;;
13421;SDS011;6782;55.904;13.396;2023-04-03T00:11:22;2.73;;;1.33;;
13421;SDS011;6782;55.904;13.396;2023-04-03T00:14:10;2.23;;;1.60;;
13421;SDS011;6782;55.904;13.396;2023-04-03T00:16:57;1.70;;;1.40;;
13421;SDS011;6782;55.904;13.396;2023-04-03T00:19:44;3.80;;;1.73;;
13421;SDS011;6782;55.904;13.396;2023-04-03T00:22:31;2.73;;;1.50;;
13421;SDS011;6782;55.904;13.396;2023-04-03T00:25:19;2.67;;;1.60;;
13421;SDS011;6782;55.904;13.396;2023-04-03T00:28:07;2.87;;;1.60;;
13421;SDS011;6782;55.904;13.396;2023-04-03T00:30:53;2.87;;;1.90;;
13421;SDS011;6782;55.904;13.396;2023-04-03T00:33:40;3.90;;;1.50;;
13421;SDS011;6782;55.904;13.396;2023-04-03T00:36:27;4.17;;;1.60;;
13421;SDS011;6782;55.904;13.396;2023-04-03T00:39:14;4.20;;;1.60;;
13421;SDS011;6782;55.904;13.396;2023-04-03T00:42:02;2.97;;;1.60;;
13421;SDS011;6782;55.904;13.396;2023-04-03T00:47:55;3.23;;;1.77;;
13421;SDS011;6782;55.904;13.396;2023-04-03T00:50:44;1.47;;;1.30;;
13421;SDS011;6782;55.904;13.396;2023-04-03T00:53:32;3.40;;;1.40;;
13421;SDS011;6782;55.904;13.396;2023-04-03T00:56:21;2.53;;;1.47;;
13421;SDS011;6782;55.904;13.396;2023-04-03T00:59:12;2.77;;;1.87;;
13421;SDS011;6782;55.904;13.396;2023-04-03T01:02:01;4.37;;;1.70;;
13421;SDS011;6782;55.904;13.396;2023-04-03T01:04:48;1.40;;;1.30;;
13421;SDS011;6782;55.904;13.396;2023-04-03T01:07:35;3.23;;;1.50;;
13421;SDS011;6782;55.904;13.396;2023-04-03T01:10:22;2.67;;;1.40;;
13421;SDS011;6782;55.904;13.396;2023-04-03T01:13:18;4.17;;;1.53;;
13421;SDS011;6782;55.904;13.396;2023-04-03T01:16:10;4.03;;;1.50;;
13421;SDS011;6782;55.904;13.396;2023-04-03T01:18:57;3.63;;;1.70;;
13421;SDS011;6782;55.904;13.396;2023-04-03T01:21:56;5.40;;;1.63;;
13421;SDS011;6782;55.904;13.396;2023-04-03T01:24:49;1.50;;;1.30;;
13421;SDS011;6782;55.904;13.396;2023-04-03T01:27:38;2.40;;;1.50;;
13421;SDS011;6782;55.904;13.396;2023-04-03T01:30:26;3.80;;;1.67;;
13421;SDS011;6782;55.904;13.396;2023-04-03T01:33:17;2.03;;;1.17;;
13421;SDS011;6782;55.904;13.396;2023-04-03T01:36:05;3.00;;;1.53;;
13421;SDS011;6782;55.904;13.396;2023-04-03T01:38:52;3.67;;;1.50;;
13421;SDS011;6782;55.904;13.396;2023-04-03T01:41:39;2.60;;;1.37;;
13421;SDS011;6782;55.904;13.396;2023-04-03T01:44:26;1.20;;;1.10;;
13421;SDS011;6782;55.904;13.396;2023-04-03T01:47:13;4.27;;;1.27;;
13421;SDS011;6782;55.904;13.396;2023-04-03T01:50:02;3.00;;;1.77;;
13421;SDS011;6782;55.904;13.396;2023-04-03T01:52:49;2.00;;;1.30;;
13421;SDS011;6782;55.904;13.396;2023-04-03T01:55:36;2.60;;;1.20;;
13421;SDS011;6782;55.904;13.396;2023-04-03T01:58:23;2.73;;;1.23;;
13421;SDS011;6782;55.904;13.396;2023-04-03T02:01:09;3.53;;;1.40;;
13421;SDS011;6782;55.904;13.396;2023-04-03T02:03:56;3.13;;;1.57;;
13421;SDS011;6782;55.904;13.396;2023-04-03T02:06:45;2.37;;;1.23;;
13421;SDS011;6782;55.904;13.396;2023-04-03T02:09:32;2.90;;;1.30;;
13421;SDS011;6782;55.904;13.396;2023-04-03T02:12:19;2.90;;;1.33;;
13421;SDS011;6782;55.904;13.396;2023-04-03T02:15:06;2.40;;;1.23;;
13421;SDS011;6782;55.904;13.396;2023-04-03T02:17:53;3.77;;;1.27;;
13421;SDS011;6782;55.904;13.396;2023-04-03T02:20:40;2.50;;;1.33;;
13421;SDS011;6782;55.904;13.396;2023-04-03T02:23:28;3.00;;;1.30;;
13421;SDS011;6782;55.904;13.396;2023-04-03T02:26:16;1.83;;;1.17;;
13421;SDS011;6782;55.904;13.396;2023-04-03T02:29:03;1.53;;;0.90;;
13421;SDS011;6782;55.904;13.396;2023-04-03T02:31:50;3.63;;;1.50;;
13421;SDS011;6782;55.904;13.396;2023-04-03T02:34:37;2.97;;;1.30;;
13421;SDS011;6782;55.904;13.396;2023-04-03T02:37:24;3.13;;;1.27;;
13421;SDS011;6782;55.904;13.396;2023-04-03T02:40:12;4.10;;;1.43;;
13421;SDS011;6782;55.904;13.396;2023-04-03T02:42:59;2.77;;;1.30;;
13421;SDS011;6782;55.904;13.396;2023-04-03T02:45:46;4.70;;;1.70;;
13421;SDS011;6782;55.904;13.396;2023-04-03T02:48:33;4.10;;;1.30;;
13421;SDS011;6782;55.904;13.396;2023-04-03T02:51:20;5.23;;;1.50;;
13421;SDS011;6782;55.904;13.396;2023-04-03T02:54:08;3.33;;;1.40;;
13421;SDS011;6782;55.904;13.396;2023-04-03T02:56:56;2.37;;;1.10;;
13421;SDS011;6782;55.904;13.396;2023-04-03T02:59:43;2.87;;;2.10;;
13421;SDS011;6782;55.904;13.396;2023-04-03T03:02:30;2.67;;;1.60;;
13421;SDS011;6782;55.904;13.396;2023-04-03T03:05:17;2.07;;;1.40;;
13421;SDS011;6782;55.904;13.396;2023-04-03T03:08:04;5.27;;;1.30;;
13421;SDS011;6782;55.904;13.396;2023-04-03T03:10:51;2.20;;;1.20;;
13421;SDS011;6782;55.904;13.396;2023-04-03T03:13:39;3.20;;;1.37;;
13421;SDS011;6782;55.904;13.396;2023-04-03T03:16:26;3.97;;;1.60;;
13421;SDS011;6782;55.904;13.396;2023-04-03T03:19:13;2.40;;;1.40;;
13421;SDS011;6782;55.904;13.396;2023-04-03T03:22:00;4.73;;;1.47;;
13421;SDS011;6782;55.904;13.396;2023-04-03T03:24:47;3.87;;;1.37;;
13421;SDS011;6782;55.904;13.396;2023-04-03T03:27:34;3.03;;;1.77;;
13421;SDS011;6782;55.904;13.396;2023-04-03T03:30:22;3.73;;;1.63;;
13421;SDS011;6782;55.904;13.396;2023-04-03T03:33:09;3.00;;;1.30;;
13421;SDS011;6782;55.904;13.396;2023-04-03T03:35:57;3.13;;;1.30;;
13421;SDS011;6782;55.904;13.396;2023-04-03T03:38:44;2.30;;;1.27;;
13421;SDS011;6782;55.904;13.396;2023-04-03T03:41:31;3.17;;;1.30;;
13421;SDS011;6782;55.904;13.396;2023-04-03T03:44:18;3.77;;;1.50;;
13421;SDS011;6782;55.904;13.396;2023-04-03T03:47:06;2.33;;;1.23;;
13421;SDS011;6782;55.904;13.396;2023-04-03T03:49:56;4.07;;;1.30;;
13421;SDS011;6782;55.904;13.396;2023-04-03T03:52:43;2.37;;;1.43;;
13421;SDS011;6782;55.904;13.396;2023-04-03T03:55:30;1.97;;;1.33;;
13421;SDS011;6782;55.904;13.396;2023-04-03T03:58:17;2.10;;;1.23;;
13421;SDS011;6782;55.904;13.396;2023-04-03T04:01:04;4.70;;;1.47;;
13421;SDS011;6782;55.904;13.396;2023-04-03T04:03:53;5.00;;;1.50;;
13421;SDS011;6782;55.904;13.396;2023-04-03T04:06:41;3.37;;;1.20;;
13421;SDS011;6782;55.904;13.396;2023-04-03T04:09:28;4.93;;;1.50;;
13421;SDS011;6782;55.904;13.396;2023-04-03T04:12:15;3.47;;;1.50;;
13421;SDS011;6782;55.904;13.396;2023-04-03T04:15:03;4.73;;;1.40;;
13421;SDS011;6782;55.904;13.396;2023-04-03T04:17:50;3.20;;;1.23;;
13421;SDS011;6782;55.904;13.396;2023-04-03T04:20:38;4.30;;;1.37;;
13421;SDS011;6782;55.904;13.396;2023-04-03T04:23:25;4.70;;;1.53;;
13421;SDS011;6782;55.904;13.396;2023-04-03T04:26:12;4.60;;;2.10;;
13421;SDS011;6782;55.904;13.396;2023-04-03T04:28:59;3.20;;;1.50;;
13421;SDS011;6782;55.904;13.396;2023-04-03T04:31:46;6.53;;;1.60;;
13421;SDS011;6782;55.904;13.396;2023-04-03T04:34:33;4.13;;;1.70;;
13421;SDS011;6782;55.904;13.396;2023-04-03T04:37:22;3.30;;;1.37;;
13421;SDS011;6782;55.904;13.396;2023-04-03T04:40:09;4.70;;;1.90;;
13421;SDS011;6782;55.904;13.396;2023-04-03T04:42:56;4.93;;;2.10;;
13421;SDS011;6782;55.904;13.396;2023-04-03T04:45:42;2.70;;;1.60;;
13421;SDS011;6782;55.904;13.396;2023-04-03T04:48:29;5.27;;;2.33;;
13421;SDS011;6782;55.904;13.396;2023-04-03T04:51:16;4.30;;;1.80;;
13421;SDS011;6782;55.904;13.396;2023-04-03T04:54:05;4.70;;;1.50;;
13421;SDS011;6782;55.904;13.396;2023-04-03T04:56:52;3.60;;;1.40;;
13421;SDS011;6782;55.904;13.396;2023-04-03T04:59:39;5.27;;;2.00;;
13421;SDS011;6782;55.904;13.396;2023-04-03T05:02:26;2.67;;;1.73;;
13421;SDS011;6782;55.904;13.396;2023-04-03T05:05:13;5.00;;;1.77;;
13421;SDS011;6782;55.904;13.396;2023-04-03T05:08:00;4.27;;;2.00;;
13421;SDS011;6782;55.904;13.396;2023-04-03T05:10:49;3.80;;;1.60;;
13421;SDS011;6782;55.904;13.396;2023-04-03T05:13:36;5.37;;;1.87;;
13421;SDS011;6782;55.904;13.396;2023-04-03T05:16:23;3.13;;;1.43;;
13421;SDS011;6782;55.904;13.396;2023-04-03T05:19:10;9.23;;;1.73;;
13421;SDS011;6782;55.904;13.396;2023-04-03T05:21:57;8.67;;;1.77;;
13421;SDS011;6782;55.904;13.396;2023-04-03T05:24:45;8.93;;;2.17;;
13421;SDS011;6782;55.904;13.396;2023-04-03T05:27:33;7.87;;;1.97;;
13421;SDS011;6782;55.904;13.396;2023-04-03T05:30:20;2.73;;;1.57;;
13421;SDS011;6782;55.904;13.396;2023-04-03T05:33:07;6.17;;;1.70;;
13421;SDS011;6782;55.904;13.396;2023-04-03T05:35:54;2.70;;;1.40;;
13421;SDS011;6782;55.904;13.396;2023-04-03T05:38:42;3.30;;;1.73;;
13421;SDS011;6782;55.904;13.396;2023-04-03T05:41:29;1.60;;;1.47;;
13421;SDS011;6782;55.904;13.396;2023-04-03T05:44:17;4.30;;;1.97;;
13421;SDS011;6782;55.904;13.396;2023-04-03T05:47:04;3.87;;;1.60;;
13421;SDS011;6782;55.904;13.396;2023-04-03T05:49:51;3.90;;;1.90;;
13421;SDS011;6782;55.904;13.396;2023-04-03T05:52:40;4.63;;;1.70;;
13421;SDS011;6782;55.904;13.396;2023-04-03T05:55:27;2.27;;;1.43;;
13421;SDS011;6782;55.904;13.396;2023-04-03T05:58:14;4.67;;;1.80;;
13421;SDS011;6782;55.904;13.396;2023-04-03T06:01:02;2.77;;;1.83;;
13421;SDS011;6782;55.904;13.396;2023-04-03T06:03:50;2.53;;;1.53;;
13421;SDS011;6782;55.904;13.396;2023-04-03T06:06:44;2.90;;;1.30;;
13421;SDS011;6782;55.904;13.396;2023-04-03T06:09:31;3.50;;;1.70;;
13421;SDS011;6782;55.904;13.396;2023-04-03T06:12:18;3.07;;;1.50;;
13421;SDS011;6782;55.904;13.396;2023-04-03T06:15:06;3.30;;;1.53;;
13421;SDS011;6782;55.904;13.396;2023-04-03T06:17:57;3.07;;;1.63;;
13421;SDS011;6782;55.904;13.396;2023-04-03T06:20:44;4.10;;;1.30;;
13421;SDS011;6782;55.904;13.396;2023-04-03T06:23:30;4.43;;;1.50;;
13421;SDS011;6782;55.904;13.396;2023-04-03T06:26:18;2.97;;;1.23;;
13421;SDS011;6782;55.904;13.396;2023-04-03T06:29:06;3.20;;;1.63;;
13421;SDS011;6782;55.904;13.396;2023-04-03T06:31:53;4.00;;;1.60;;
13421;SDS011;6782;55.904;13.396;2023-04-03T06:34:41;3.07;;;1.37;;
13421;SDS011;6782;55.904;13.396;2023-04-03T06:37:28;2.10;;;1.53;;
13421;SDS011;6782;55.904;13.396;2023-04-03T06:40:17;3.73;;;1.60;;
13421;SDS011;6782;55.904;13.396;2023-04-03T06:43:05;3.60;;;1.23;;
13421;SDS011;6782;55.904;13.396;2023-04-03T06:45:52;4.27;;;1.73;;
13421;SDS011;6782;55.904;13.396;2023-04-03T06:48:39;2.70;;;1.20;;
13421;SDS011;6782;55.904;13.396;2023-04-03T06:51:28;3.20;;;1.67;;
13421;SDS011;6782;55.904;13.396;2023-04-03T06:54:15;2.70;;;1.70;;
13421;SDS011;6782;55.904;13.396;2023-04-03T06:57:02;2.83;;;1.60;;
13421;SDS011;6782;55.904;13.396;2023-04-03T06:59:49;3.47;;;1.70;;
13421;SDS011;6782;55.904;13.396;2023-04-03T07:02:37;4.13;;;1.63;;
13421;SDS011;6782;55.904;13.396;2023-04-03T07:05:24;4.40;;;1.83;;
13421;SDS011;6782;55.904;13.396;2023-04-03T07:08:12;2.93;;;1.37;;
13421;SDS011;6782;55.904;13.396;2023-04-03T07:11:00;2.97;;;1.30;;
13421;SDS011;6782;55.904;13.396;2023-04-03T07:13:47;3.60;;;1.50;;
13421;SDS011;6782;55.904;13.396;2023-04-03T07:16:34;5.10;;;1.50;;
13421;SDS011;6782;55.904;13.396;2023-04-03T07:19:21;5.00;;;1.40;;
13421;SDS011;6782;55.904;13.396;2023-04-03T07:22:09;5.73;;;1.50;;
13421;SDS011;6782;55.904;13.396;2023-04-03T07:24:58;4.37;;;1.30;;
13421;SDS011;6782;55.904;13.396;2023-04-03T07:27:46;3.33;;;1.33;;
13421;SDS011;6782;55.904;13.396;2023-04-03T07:30:34;6.30;;;1.60;;
13421;SDS011;6782;55.904;13.396;2023-04-03T07:33:22;3.90;;;1.40;;
13421;SDS011;6782;55.904;13.396;2023-04-03T07:36:09;3.23;;;1.27;;
13421;SDS011;6782;55.904;13.396;2023-04-03T07:38:57;1.60;;;1.10;;
13421;SDS011;6782;55.904;13.396;2023-04-03T07:41:46;3.07;;;1.20;;
13421;SDS011;6782;55.904;13.396;2023-04-03T07:44:33;2.13;;;1.10;;
13421;SDS011;6782;55.904;13.396;2023-04-03T07:47:20;3.37;;;1.20;;
13421;SDS011;6782;55.904;13.396;2023-04-03T07:50:08;3.07;;;1.07;;
13421;SDS011;6782;55.904;13.396;2023-04-03T07:52:55;1.30;;;1.20;;
13421;SDS011;6782;55.904;13.396;2023-04-03T07:55:45;2.77;;;1.10;;
13421;SDS011;6782;55.904;13.396;2023-04-03T07:58:34;4.37;;;1.37;;
13421;SDS011;6782;55.904;13.396;2023-04-03T08:01:21;3.60;;;1.00;;
13421;SDS011;6782;55.904;13.396;2023-04-03T08:04:08;2.07;;;1.20;;
13421;SDS011;6782;55.904;13.396;2023-04-03T08:06:55;2.77;;;1.50;;
13421;SDS011;6782;55.904;13.396;2023-04-03T08:09:43;1.07;;;0.90;;
13421;SDS011;6782;55.904;13.396;2023-04-03T08:12:30;2.20;;;1.20;;
13421;SDS011;6782;55.904;13.396;2023-04-03T08:15:20;2.90;;;1.13;;
13421;SDS011;6782;55.904;13.396;2023-04-03T08:18:07;2.63;;;1.10;;
13421;SDS011;6782;55.904;13.396;2023-04-03T08:20:54;1.33;;;1.00;;
13421;SDS011;6782;55.904;13.396;2023-04-03T08:23:41;1.70;;;1.20;;
13421;SDS011;6782;55.904;13.396;2023-04-03T08:26:28;3.33;;;1.20;;
13421;SDS011;6782;55.904;13.396;2023-04-03T08:29:15;2.30;;;0.90;;
13421;SDS011;6782;55.904;13.396;2023-04-03T08:32:03;2.20;;;1.23;;
13421;SDS011;6782;55.904;13.396;2023-04-03T08:34:50;1.73;;;1.10;;
13421;SDS011;6782;55.904;13.396;2023-04-03T08:37:39;2.23;;;1.20;;
13421;SDS011;6782;55.904;13.396;2023-04-03T08:40:26;3.00;;;1.30;;
13421;SDS011;6782;55.904;13.396;2023-04-03T08:43:21;2.00;;;1.00;;
13421;SDS011;6782;55.904;13.396;2023-04-03T08:46:13;4.00;;;1.27;;
13421;SDS011;6782;55.904;13.396;2023-04-03T08:49:02;2.50;;;1.00;;
13421;SDS011;6782;55.904;13.396;2023-04-03T08:51:49;3.00;;;1.00;;
13421;SDS011;6782;55.904;13.396;2023-04-03T08:54:38;2.73;;;1.10;;
13421;SDS011;6782;55.904;13.396;2023-04-03T08:57:29;2.50;;;1.13;;
13421;SDS011;6782;55.904;13.396;2023-04-03T09:00:17;2.97;;;1.10;;
13421;SDS011;6782;55.904;13.396;2023-04-03T09:03:05;1.60;;;0.90;;
13421;SDS011;6782;55.904;13.396;2023-04-03T09:05:55;2.57;;;1.30;;
13421;SDS011;6782;55.904;13.396;2023-04-03T09:08:43;4.10;;;1.00;;
13421;SDS011;6782;55.904;13.396;2023-04-03T09:11:35;1.20;;;1.03;;
13421;SDS011;6782;55.904;13.396;2023-04-03T09:14:24;3.57;;;1.53;;
13421;SDS011;6782;55.904;13.396;2023-04-03T09:17:14;2.43;;;1.20;;
13421;SDS011;6782;55.904;13.396;2023-04-03T09:20:06;2.60;;;1.13;;
13421;SDS011;6782;55.904;13.396;2023-04-03T09:22:58;1.83;;;1.30;;
13421;SDS011;6782;55.904;13.396;2023-04-03T09:25:48;2.50;;;1.20;;
13421;SDS011;6782;55.904;13.396;2023-04-03T09:28:37;1.83;;;0.80;;
13421;SDS011;6782;55.904;13.396;2023-04-03T09:31:28;2.20;;;1.10;;
13421;SDS011;6782;55.904;13.396;2023-04-03T09:34:18;2.53;;;1.50;;
13421;SDS011;6782;55.904;13.396;2023-04-03T09:37:07;1.97;;;0.80;;
13421;SDS011;6782;55.904;13.396;2023-04-03T09:39:56;2.70;;;1.07;;
13421;SDS011;6782;55.904;13.396;2023-04-03T09:42:43;1.40;;;0.80;;
13421;SDS011;6782;55.904;13.396;2023-04-03T09:45:31;1.50;;;1.00;;
13421;SDS011;6782;55.904;13.396;2023-04-03T09:48:19;3.07;;;1.00;;
13421;SDS011;6782;55.904;13.396;2023-04-03T09:51:08;1.30;;;1.00;;
13421;SDS011;6782;55.904;13.396;2023-04-03T09:54:02;1.70;;;1.17;;
13421;SDS011;6782;55.904;13.396;2023-04-03T09:57:11;2.30;;;1.00;;
13421;SDS011;6782;55.904;13.396;2023-04-03T09:59:59;2.60;;;0.90;;
13421;SDS011;6782;55.904;13.396;2023-04-03T10:02:48;2.00;;;0.90;;
13421;SDS011;6782;55.904;13.396;2023-04-03T10:05:36;1.53;;;0.80;;
13421;SDS011;6782;55.904;13.396;2023-04-03T10:08:25;2.20;;;1.00;;
13421;SDS011;6782;55.904;13.396;2023-04-03T10:11:14;1.93;;;0.90;;
13421;SDS011;6782;55.904;13.396;2023-04-03T10:14:03;1.43;;;1.10;;
13421;SDS011;6782;55.904;13.396;2023-04-03T10:16:52;2.93;;;1.10;;
13421;SDS011;6782;55.904;13.396;2023-04-03T10:19:41;1.20;;;1.00;;
13421;SDS011;6782;55.904;13.396;2023-04-03T10:22:31;2.83;;;1.10;;
13421;SDS011;6782;55.904;13.396;2023-04-03T10:25:25;1.43;;;1.00;;
13421;SDS011;6782;55.904;13.396;2023-04-03T10:28:14;1.07;;;0.90;;
13421;SDS011;6782;55.904;13.396;2023-04-03T10:31:08;1.27;;;1.00;;
13421;SDS011;6782;55.904;13.396;2023-04-03T10:34:00;1.07;;;0.90;;
13421;SDS011;6782;55.904;13.396;2023-04-03T10:36:53;1.47;;;1.00;;
13421;SDS011;6782;55.904;13.396;2023-04-03T10:39:44;1.67;;;1.03;;
13421;SDS011;6782;55.904;13.396;2023-04-03T10:42:35;1.30;;;0.90;;
13421;SDS011;6782;55.904;13.396;2023-04-03T10:45:26;4.57;;;1.10;;
13421;SDS011;6782;55.904;13.396;2023-04-03T10:48:16;2.40;;;1.00;;
13421;SDS011;6782;55.904;13.396;2023-04-03T10:51:07;0.87;;;0.80;;
13421;SDS011;6782;55.904;13.396;2023-04-03T10:54:00;1.37;;;0.90;;
13421;SDS011;6782;55.904;13.396;2023-04-03T10:56:52;2.30;;;0.93;;
13421;SDS011;6782;55.904;13.396;2023-04-03T10:59:41;1.50;;;0.97;;
13421;SDS011;6782;55.904;13.396;2023-04-03T11:02:30;1.90;;;1.03;;
13421;SDS011;6782;55.904;13.396;2023-04-03T11:05:21;1.87;;;1.03;;
13421;SDS011;6782;55.904;13.396;2023-04-03T11:08:15;1.83;;;1.20;;
13421;SDS011;6782;55.904;13.396;2023-04-03T11:11:05;1.00;;;0.83;;
13421;SDS011;6782;55.904;13.396;2023-04-03T11:13:54;1.53;;;1.13;;
13421;SDS011;6782;55.904;13.396;2023-04-03T11:16:42;1.10;;;0.80;;
13421;SDS011;6782;55.904;13.396;2023-04-03T11:19:32;1.67;;;1.00;;
13421;SDS011;6782;55.904;13.396;2023-04-03T11:22:23;1.37;;;0.97;;
13421;SDS011;6782;55.904;13.396;2023-04-03T11:25:14;2.27;;;1.00;;
13421;SDS011;6782;55.904;13.396;2023-04-03T11:28:05;1.50;;;0.83;;
13421;SDS011;6782;55.904;13.396;2023-04-03T11:30:54;2.00;;;1.13;;
13421;SDS011;6782;55.904;13.396;2023-04-03T11:33:47;2.53;;;1.07;;
13421;SDS011;6782;55.904;13.396;2023-04-03T11:36:38;1.93;;;1.10;;
13421;SDS011;6782;55.904;13.396;2023-04-03T11:39:30;2.60;;;1.23;;
13421;SDS011;6782;55.904;13.396;2023-04-03T11:42:25;2.80;;;1.20;;
13421;SDS011;6782;55.904;13.396;2023-04-03T11:45:23;3.17;;;1.10;;
13421;SDS011;6782;55.904;13.396;2023-04-03T11:54:42;2.00;;;0.90;;
13421;SDS011;6782;55.904;13.396;2023-04-03T11:57:47;2.07;;;1.10;;
13421;SDS011;6782;55.904;13.396;2023-04-03T12:00:50;0.83;;;0.80;;
13421;SDS011;6782;55.904;13.396;2023-04-03T12:06:50;1.60;;;0.87;;
13421;SDS011;6782;55.904;13.396;2023-04-03T12:12:59;1.47;;;0.70;;
13421;SDS011;6782;55.904;13.396;2023-04-03T12:15:53;2.00;;;1.13;;
13421;SDS011;6782;55.904;13.396;2023-04-03T12:18:43;0.90;;;0.80;;
13421;SDS011;6782;55.904;13.396;2023-04-03T12:24:38;1.57;;;0.93;;
13421;SDS011;6782;55.904;13.396;2023-04-03T12:27:27;1.40;;;0.80;;
13421;SDS011;6782;55.904;13.396;2023-04-03T12:30:18;3.03;;;0.90;;
13421;SDS011;6782;55.904;13.396;2023-04-03T12:33:17;1.27;;;1.00;;
13421;SDS011;6782;55.904;13.396;2023-04-03T12:36:07;1.20;;;1.10;;
13421;SDS011;6782;55.904;13.396;2023-04-03T12:39:01;2.30;;;1.10;;
13421;SDS011;6782;55.904;13.396;2023-04-03T12:41:51;0.93;;;0.80;;
13421;SDS011;6782;55.904;13.396;2023-04-03T12:44:42;1.30;;;1.00;;
13421;SDS011;6782;55.904;13.396;2023-04-03T12:47:34;1.10;;;0.90;;
13421;SDS011;6782;55.904;13.396;2023-04-03T12:50:24;1.70;;;1.10;;
13421;SDS011;6782;55.904;13.396;2023-04-03T12:53:12;1.40;;;1.13;;
13421;SDS011;6782;55.904;13.396;2023-04-03T12:59:16;1.20;;;0.80;;
13421;SDS011;6782;55.904;13.396;2023-04-03T13:02:03;1.97;;;1.07;;
13421;SDS011;6782;55.904;13.396;2023-04-03T13:04:55;1.20;;;0.90;;
13421;SDS011;6782;55.904;13.396;2023-04-03T13:07:44;1.73;;;1.00;;
13421;SDS011;6782;55.904;13.396;2023-04-03T13:10:42;1.70;;;1.00;;
13421;SDS011;6782;55.904;13.396;2023-04-03T13:13:29;2.00;;;0.97;;
13421;SDS011;6782;55.904;13.396;2023-04-03T13:16:16;1.10;;;1.00;;
13421;SDS011;6782;55.904;13.396;2023-04-03T13:19:03;1.97;;;0.93;;
13421;SDS011;6782;55.904;13.396;2023-04-03T13:21:54;1.70;;;0.83;;
13421;SDS011;6782;55.904;13.396;2023-04-03T13:24:44;0.93;;;0.90;;
13421;SDS011;6782;55.904;13.396;2023-04-03T13:27:33;1.13;;;0.93;;
13421;SDS011;6782;55.904;13.396;2023-04-03T13:30:25;1.23;;;0.90;;
13421;SDS011;6782;55.904;13.396;2023-04-03T13:33:19;1.10;;;1.00;;
13421;SDS011;6782;55.904;13.396;2023-04-03T13:36:08;1.47;;;0.93;;
13421;SDS011;6782;55.904;13.396;2023-04-03T13:38:59;3.23;;;1.10;;
13421;SDS011;6782;55.904;13.396;2023-04-03T13:41:47;1.23;;;0.90;;
13421;SDS011;6782;55.904;13.396;2023-04-03T13:44:35;2.83;;;1.20;;
13421;SDS011;6782;55.904;13.396;2023-04-03T13:47:22;2.33;;;0.90;;
13421;SDS011;6782;55.904;13.396;2023-04-03T13:50:14;1.87;;;0.90;;
13421;SDS011;6782;55.904;13.396;2023-04-03T13:53:02;1.20;;;1.10;;
13421;SDS011;6782;55.904;13.396;2023-04-03T13:55:56;1.10;;;1.00;;
13421;SDS011;6782;55.904;13.396;2023-04-03T13:58:52;1.70;;;1.00;;
13421;SDS011;6782;55.904;13.396;2023-04-03T14:01:41;1.30;;;1.07;;
13421;SDS011;6782;55.904;13.396;2023-04-03T14:04:30;1.07;;;0.80;;
13421;SDS011;6782;55.904;13.396;2023-04-03T14:07:17;1.13;;;0.90;;
13421;SDS011;6782;55.904;13.396;2023-04-03T14:10:05;1.00;;;0.70;;
13421;SDS011;6782;55.904;13.396;2023-04-03T14:12:54;1.47;;;1.00;;
13421;SDS011;6782;55.904;13.396;2023-04-03T14:15:41;0.97;;;0.70;;
13421;SDS011;6782;55.904;13.396;2023-04-03T14:18:29;1.77;;;0.97;;
13421;SDS011;6782;55.904;13.396;2023-04-03T14:21:16;0.97;;;0.80;;
13421;SDS011;6782;55.904;13.396;2023-04-03T14:24:03;2.37;;;1.00;;
13421;SDS011;6782;55.904;13.396;2023-04-03T14:26:51;1.40;;;0.80;;
13421;SDS011;6782;55.904;13.396;2023-04-03T14:29:40;1.13;;;0.80;;
13421;SDS011;6782;55.904;13.396;2023-04-03T14:32:27;1.47;;;1.00;;
13421;SDS011;6782;55.904;13.396;2023-04-03T14:35:14;1.97;;;0.97;;
13421;SDS011;6782;55.904;13.396;2023-04-03T14:38:01;1.97;;;0.97;;
13421;SDS011;6782;55.904;13.396;2023-04-03T14:40:49;2.60;;;1.00;;
13421;SDS011;6782;55.904;13.396;2023-04-03T14:43:36;1.73;;;0.90;;
13421;SDS011;6782;55.904;13.396;2023-04-03T14:46:26;1.53;;;1.00;;
13421;SDS011;6782;55.904;13.396;2023-04-03T14:49:15;2.23;;;1.20;;
13421;SDS011;6782;55.904;13.396;2023-04-03T14:52:06;2.00;;;0.93;;
13421;SDS011;6782;55.904;13.396;2023-04-03T14:54:54;1.57;;;0.90;;
13421;SDS011;6782;55.904;13.396;2023-04-03T14:57:41;1.00;;;0.90;;
13421;SDS011;6782;55.904;13.396;2023-04-03T15:00:28;1.53;;;0.83;;
13421;SDS011;6782;55.904;13.396;2023-04-03T15:03:18;1.20;;;1.00;;
13421;SDS011;6782;55.904;13.396;2023-04-03T15:06:05;1.20;;;0.80;;
13421;SDS011;6782;55.904;13.396;2023-04-03T15:08:53;1.97;;;1.00;;
13421;SDS011;6782;55.904;13.396;2023-04-03T15:11:40;2.03;;;1.10;;
13421;SDS011;6782;55.904;13.396;2023-04-03T15:14:26;1.10;;;0.90;;
13421;SDS011;6782;55.904;13.396;2023-04-03T15:17:14;0.63;;;0.63;;
13421;SDS011;6782;55.904;13.396;2023-04-03T15:20:05;1.20;;;0.80;;
13421;SDS011;6782;55.904;13.396;2023-04-03T15:22:57;1.67;;;0.90;;
13421;SDS011;6782;55.904;13.396;2023-04-03T15:25:46;1.93;;;0.80;;
13421;SDS011;6782;55.904;13.396;2023-04-03T15:28:35;1.57;;;0.90;;
13421;SDS011;6782;55.904;13.396;2023-04-03T15:31:22;0.97;;;0.90;;
13421;SDS011;6782;55.904;13.396;2023-04-03T15:34:09;1.63;;;0.90;;
13421;SDS011;6782;55.904;13.396;2023-04-03T15:36:57;2.97;;;0.80;;
13421;SDS011;6782;55.904;13.396;2023-04-03T15:39:44;1.43;;;0.90;;
13421;SDS011;6782;55.904;13.396;2023-04-03T15:42:31;1.23;;;0.80;;
13421;SDS011;6782;55.904;13.396;2023-04-03T15:45:18;1.50;;;0.83;;
13421;SDS011;6782;55.904;13.396;2023-04-03T15:48:06;0.80;;;0.80;;
13421;SDS011;6782;55.904;13.396;2023-04-03T15:50:54;0.80;;;0.80;;
13421;SDS011;6782;55.904;13.396;2023-04-03T15:53:42;0.90;;;0.80;;
13421;SDS011;6782;55.904;13.396;2023-04-03T15:56:29;1.70;;;1.13;;
13421;SDS011;6782;55.904;13.396;2023-04-03T15:59:16;1.43;;;1.00;;
13421;SDS011;6782;55.904;13.396;2023-04-03T16:02:04;1.83;;;0.87;;
13421;SDS011;6782;55.904;13.396;2023-04-03T16:04:52;1.40;;;0.90;;
13421;SDS011;6782;55.904;13.396;2023-04-03T16:07:38;1.10;;;1.00;;
13421;SDS011;6782;55.904;13.396;2023-04-03T16:10:27;1.57;;;1.00;;
13421;SDS011;6782;55.904;13.396;2023-04-03T16:13:15;0.93;;;0.80;;
13421;SDS011;6782;55.904;13.396;2023-04-03T16:16:02;3.33;;;1.10;;
13421;SDS011;6782;55.904;13.396;2023-04-03T16:18:49;3.37;;;1.33;;
13421;SDS011;6782;55.904;13.396;2023-04-03T16:21:36;1.57;;;1.00;;
13421;SDS011;6782;55.904;13.396;2023-04-03T16:24:24;1.40;;;1.00;;
13421;SDS011;6782;55.904;13.396;2023-04-03T16:27:12;2.23;;;1.30;;
13421;SDS011;6782;55.904;13.396;2023-04-03T16:29:59;1.10;;;0.90;;
13421;SDS011;6782;55.904;13.396;2023-04-03T16:32:46;1.13;;;0.90;;
13421;SDS011;6782;55.904;13.396;2023-04-03T16:35:33;0.97;;;0.90;;
13421;SDS011;6782;55.904;13.396;2023-04-03T16:38:20;0.97;;;0.90;;
13421;SDS011;6782;55.904;13.396;2023-04-03T16:41:07;2.43;;;1.00;;
13421;SDS011;6782;55.904;13.396;2023-04-03T16:43:55;2.53;;;0.97;;
13421;SDS011;6782;55.904;13.396;2023-04-03T16:46:43;2.20;;;1.23;;
13421;SDS011;6782;55.904;13.396;2023-04-03T16:49:30;1.10;;;1.00;;
13421;SDS011;6782;55.904;13.396;2023-04-03T16:52:18;1.95;;;1.60;;
13421;SDS011;6782;55.904;13.396;2023-04-03T16:55:05;3.13;;;1.42;;
13421;SDS011;6782;55.904;13.396;2023-04-03T16:57:52;1.70;;;1.50;;
13421;SDS011;6782;55.904;13.396;2023-04-03T17:00:41;1.27;;;0.90;;
13421;SDS011;6782;55.904;13.396;2023-04-03T17:03:28;1.73;;;1.00;;
13421;SDS011;6782;55.904;13.396;2023-04-03T17:06:16;1.90;;;1.47;;
13421;SDS011;6782;55.904;13.396;2023-04-03T17:09:03;6.43;;;4.60;;
13421;SDS011;6782;55.904;13.396;2023-04-03T17:11:50;4.30;;;2.80;;
13421;SDS011;6782;55.904;13.396;2023-04-03T17:14:38;2.73;;;1.80;;
13421;SDS011;6782;55.904;13.396;2023-04-03T17:17:27;3.37;;;2.50;;